createdAt,value
2018-06-28T00:01:36.710Z,17.77
2018-06-28T00:04:05.973Z,17.82
2018-06-28T00:06:34.176Z,17.90
2018-06-28T00:09:02.907Z,17.93
2018-06-28T00:11:31.333Z,17.90
2018-06-28T00:14:07.547Z,17.91
2018-06-28T00:16:36.098Z,17.85
2018-06-28T00:19:04.751Z,17.91
2018-06-28T00:21:33.267Z,17.74
2018-06-28T00:24:01.686Z,17.80
2018-06-28T00:26:29.958Z,17.73
2018-06-28T00:28:58.171Z,17.78
2018-06-28T00:31:26.469Z,17.68
2018-06-28T00:33:55.182Z,17.68
2018-06-28T00:36:23.611Z,17.75
2018-06-28T00:38:52.002Z,17.79
2018-06-28T00:41:20.306Z,17.65
2018-06-28T00:43:48.945Z,17.63
2018-06-28T00:46:17.215Z,17.77
2018-06-28T00:48:45.931Z,17.66
2018-06-28T00:51:14.674Z,17.70
2018-06-28T00:53:43.854Z,17.68
2018-06-28T00:56:12.445Z,17.61
2018-06-28T00:58:40.893Z,17.72
2018-06-28T01:01:09.763Z,17.69
2018-06-28T01:03:38.178Z,17.61
2018-06-28T01:06:06.598Z,17.64
2018-06-28T01:08:35.411Z,17.61
2018-06-28T01:11:08.458Z,17.62
2018-06-28T01:13:37.564Z,17.36
2018-06-28T01:16:06.011Z,17.49
2018-06-28T01:18:34.435Z,17.58
2018-06-28T01:21:03.631Z,17.55
2018-06-28T01:23:32.315Z,17.44
2018-06-28T01:26:00.869Z,17.35
2018-06-28T01:28:29.294Z,17.42
2018-06-28T01:30:58.563Z,17.28
2018-06-28T01:33:27.135Z,17.22
2018-06-28T01:35:55.413Z,17.22
2018-06-28T01:38:23.719Z,17.15
2018-06-28T01:40:52.135Z,17.34
2018-06-28T01:43:37.157Z,17.18
2018-06-28T01:46:06.631Z,17.12
2018-06-28T01:48:35.249Z,17.18
2018-06-28T01:51:03.737Z,17.17
2018-06-28T01:53:36.526Z,17.27
2018-06-28T01:56:04.962Z,16.98
2018-06-28T01:58:33.434Z,17.20
2018-06-28T02:01:01.935Z,17.14
2018-06-28T02:03:30.252Z,17.17
2018-06-28T02:05:58.565Z,17.09
2018-06-28T02:08:26.823Z,17.20
2018-06-28T02:10:55.223Z,17.10
2018-06-28T02:13:23.600Z,17.08
2018-06-28T02:15:52.087Z,17.02
2018-06-28T02:18:20.695Z,16.91
2018-06-28T02:20:49.768Z,16.74
2018-06-28T02:23:18.189Z,16.93
2018-06-28T02:25:46.610Z,16.87
2018-06-28T02:28:19.679Z,16.86
2018-06-28T02:30:48.324Z,16.74
2018-06-28T02:33:17.449Z,16.50
2018-06-28T02:35:51.955Z,16.29
2018-06-28T02:38:21.356Z,16.35
2018-06-28T02:40:50.887Z,16.32
2018-06-28T02:43:20.276Z,16.26
2018-06-28T02:45:48.970Z,15.92
2018-06-28T02:48:17.765Z,16.11
2018-06-28T02:50:46.235Z,15.83
2018-06-28T02:53:14.882Z,15.77
2018-06-28T02:55:43.171Z,15.89
2018-06-28T02:58:11.595Z,15.68
2018-06-28T03:00:40.192Z,15.75
2018-06-28T03:03:08.666Z,15.93
2018-06-28T03:05:37.137Z,15.81
2018-06-28T03:08:05.791Z,15.59
2018-06-28T03:10:34.268Z,15.87
2018-06-28T03:13:04.277Z,15.60
2018-06-28T03:15:34.298Z,15.34
2018-06-28T03:18:03.129Z,14.99
2018-06-28T03:20:31.991Z,15.07
2018-06-28T03:23:00.901Z,15.12
2018-06-28T03:25:29.259Z,15.14
2018-06-28T03:27:57.655Z,15.33
2018-06-28T03:30:26.664Z,15.47
2018-06-28T03:32:55.090Z,16.09
2018-06-28T03:35:23.801Z,16.39
2018-06-28T03:37:52.307Z,16.45
2018-06-28T03:40:21.462Z,16.34
2018-06-28T03:42:49.983Z,15.75
2018-06-28T03:45:18.273Z,16.30
2018-06-28T03:47:46.598Z,15.94
2018-06-28T03:50:14.794Z,15.92
2018-06-28T03:52:43.148Z,15.51
2018-06-28T03:55:11.478Z,15.90
2018-06-28T03:57:39.916Z,15.93
2018-06-28T04:00:08.234Z,15.61
2018-06-28T04:02:36.680Z,16.10
2018-06-28T04:05:05.173Z,16.18
2018-06-28T04:07:33.345Z,16.38
2018-06-28T04:10:01.568Z,16.03
2018-06-28T04:12:29.883Z,15.93
2018-06-28T04:14:58.811Z,16.05
2018-06-28T04:17:27.483Z,16.33
2018-06-28T04:19:55.834Z,16.33
2018-06-28T04:22:29.122Z,16.59
2018-06-28T04:24:58.632Z,16.04
2018-06-28T04:27:27.730Z,15.81
2018-06-28T04:29:56.036Z,15.71
2018-06-28T04:32:24.923Z,15.78
2018-06-28T04:34:53.227Z,15.90
2018-06-28T04:37:21.507Z,15.88
2018-06-28T04:39:49.797Z,15.28
2018-06-28T04:42:18.183Z,15.13
2018-06-28T04:44:46.447Z,15.42
2018-06-28T04:47:15.175Z,15.27
2018-06-28T04:49:43.738Z,15.10
2018-06-28T04:52:12.197Z,15.39
2018-06-28T04:54:40.602Z,15.33
2018-06-28T04:57:09.096Z,15.31
2018-06-28T04:59:37.336Z,15.16
2018-06-28T05:02:06.483Z,15.46
2018-06-28T05:04:34.914Z,15.71
2018-06-28T05:07:03.444Z,15.98
2018-06-28T05:09:32.463Z,15.92
2018-06-28T05:12:01.595Z,15.89
2018-06-28T05:14:30.586Z,15.92
2018-06-28T05:16:59.117Z,16.25
2018-06-28T05:19:28.364Z,16.64
2018-06-28T05:21:56.744Z,16.78
2018-06-28T05:24:25.404Z,17.14
2018-06-28T05:26:54.421Z,17.32
2018-06-28T05:29:22.851Z,17.58
2018-06-28T05:31:51.769Z,17.61
2018-06-28T05:34:23.557Z,17.98
2018-06-28T05:36:51.947Z,17.98
2018-06-28T05:39:20.327Z,18.47
2018-06-28T05:41:48.799Z,18.17
2018-06-28T05:44:17.171Z,18.55
2018-06-28T05:46:45.690Z,18.81
2018-06-28T05:49:14.138Z,20.07
2018-06-28T05:51:43.116Z,22.02
2018-06-28T05:54:11.651Z,23.84
2018-06-28T05:56:45.489Z,23.17
2018-06-28T05:59:14.005Z,23.64
2018-06-28T06:01:42.344Z,20.84
2018-06-28T06:04:10.640Z,21.50
2018-06-28T06:06:39.083Z,20.98
2018-06-28T06:09:09.343Z,22.86
2018-06-28T06:11:38.187Z,23.51
2018-06-28T06:14:06.770Z,23.70
2018-06-28T06:16:36.468Z,24.59
2018-06-28T06:19:06.097Z,23.18
2018-06-28T06:21:35.423Z,21.35
2018-06-28T06:24:04.133Z,23.21
2018-06-28T06:26:32.606Z,21.92
2018-06-28T06:29:01.179Z,22.52
2018-06-28T06:31:29.671Z,26.10
2018-06-28T06:33:58.021Z,26.97
2018-06-28T06:36:26.605Z,26.14
2018-06-28T06:38:58.832Z,26.51
2018-06-28T06:41:27.340Z,23.21
2018-06-28T06:43:55.732Z,24.33
2018-06-28T06:46:23.917Z,21.39
2018-06-28T06:48:52.415Z,22.08
2018-06-28T06:51:20.949Z,25.16
2018-06-28T06:53:49.505Z,25.84
2018-06-28T06:56:18.102Z,27.51
2018-06-28T06:58:46.508Z,24.30
2018-06-28T07:01:14.886Z,24.24
2018-06-28T07:03:43.268Z,27.06
2018-06-28T07:06:11.869Z,24.18
2018-06-28T07:08:40.742Z,26.27
2018-06-28T07:11:09.193Z,24.15
2018-06-28T07:13:37.405Z,23.27
2018-06-28T07:16:06.368Z,24.74
2018-06-28T07:18:35.361Z,21.76
2018-06-28T07:21:04.059Z,22.97
2018-06-28T07:23:32.464Z,24.27
2018-06-28T07:26:00.942Z,27.00
2018-06-28T07:28:29.566Z,24.43
2018-06-28T07:30:58.828Z,24.64
2018-06-28T07:33:27.169Z,23.22
2018-06-28T07:35:55.460Z,22.16
2018-06-28T07:38:23.803Z,22.73
2018-06-28T07:40:52.137Z,23.02
2018-06-28T07:43:20.620Z,20.41
2018-06-28T07:45:49.040Z,20.60
2018-06-28T07:48:19.496Z,21.08
2018-06-28T07:50:47.844Z,20.99
2018-06-28T07:53:16.344Z,21.02
2018-06-28T07:55:45.448Z,21.41
2018-06-28T07:58:14.586Z,20.83
2018-06-28T08:00:43.827Z,21.74
2018-06-28T08:03:12.080Z,21.73
2018-06-28T08:05:40.783Z,21.88
2018-06-28T08:08:09.079Z,22.05
2018-06-28T08:10:37.540Z,21.03
2018-06-28T08:13:05.883Z,21.92
2018-06-28T08:15:34.478Z,22.18
2018-06-28T08:18:03.373Z,22.06
2018-06-28T08:20:32.853Z,21.57
2018-06-28T08:23:01.886Z,21.86
2018-06-28T08:25:30.257Z,21.88
2018-06-28T08:27:58.527Z,21.36
2018-06-28T08:30:27.069Z,21.26
2018-06-28T08:32:55.397Z,21.82
2018-06-28T08:35:23.672Z,21.57
2018-06-28T08:37:51.962Z,21.69
2018-06-28T08:40:20.385Z,22.35
2018-06-28T08:42:49.062Z,21.89
2018-06-28T08:45:17.358Z,22.03
2018-06-28T08:47:45.772Z,21.67
2018-06-28T08:50:14.014Z,22.50
2018-06-28T08:52:42.293Z,21.92
2018-06-28T08:55:10.810Z,22.51
2018-06-28T08:57:39.097Z,22.45
2018-06-28T09:00:08.734Z,23.03
2018-06-28T09:02:37.116Z,22.94
2018-06-28T09:05:05.879Z,22.61
2018-06-28T09:07:41.770Z,22.25
2018-06-28T09:10:09.976Z,22.95
2018-06-28T09:12:38.243Z,22.03
2018-06-28T09:15:06.634Z,23.02
2018-06-28T09:17:35.759Z,23.31
2018-06-28T09:20:04.552Z,23.27
2018-06-28T09:22:35.272Z,23.28
2018-06-28T09:25:04.615Z,23.14
2018-06-28T09:27:33.337Z,24.03
2018-06-28T09:30:01.878Z,24.22
2018-06-28T09:32:30.392Z,23.28
2018-06-28T09:34:58.774Z,22.70
2018-06-28T09:37:27.010Z,22.88
2018-06-28T09:39:55.576Z,22.95
2018-06-28T09:42:23.901Z,22.97
2018-06-28T09:44:52.991Z,22.50
2018-06-28T09:47:21.243Z,22.53
2018-06-28T09:49:49.754Z,22.82
2018-06-28T09:52:18.091Z,22.69
2018-06-28T09:54:46.431Z,22.76
2018-06-28T09:57:14.595Z,22.95
2018-06-28T09:59:43.170Z,23.26
2018-06-28T10:02:11.634Z,23.26
2018-06-28T10:04:40.808Z,22.53
2018-06-28T10:07:09.210Z,23.60
2018-06-28T10:09:37.729Z,23.50
2018-06-28T10:12:06.199Z,23.04
2018-06-28T10:14:34.614Z,22.67
2018-06-28T10:17:02.990Z,22.46
2018-06-28T10:19:31.308Z,22.92
2018-06-28T10:22:00.044Z,22.99
2018-06-28T10:24:28.370Z,23.37
2018-06-28T10:26:57.078Z,24.18
2018-06-28T10:29:25.260Z,24.04
2018-06-28T10:31:53.507Z,24.53
2018-06-28T10:34:22.417Z,24.13
2018-06-28T10:36:50.722Z,24.17
2018-06-28T10:39:19.083Z,23.86
2018-06-28T10:41:47.487Z,23.90
2018-06-28T10:44:15.669Z,23.81
2018-06-28T10:46:44.258Z,24.00
2018-06-28T10:49:12.766Z,24.26
2018-06-28T10:51:41.174Z,24.63
2018-06-28T10:54:09.527Z,24.73
2018-06-28T10:56:42.306Z,25.32
2018-06-28T10:59:10.779Z,24.82
2018-06-28T11:01:39.810Z,24.36
2018-06-28T11:04:08.150Z,25.08
2018-06-28T11:06:36.389Z,24.09
2018-06-28T11:09:08.476Z,23.75
2018-06-28T11:11:38.253Z,23.54
2018-06-28T11:14:06.727Z,23.80
2018-06-28T11:16:35.080Z,23.98
2018-06-28T11:19:03.458Z,23.45
2018-06-28T11:21:32.117Z,23.61
2018-06-28T11:24:01.371Z,23.56
2018-06-28T11:26:29.753Z,22.99
2018-06-28T11:28:57.994Z,23.09
2018-06-28T11:31:26.202Z,23.73
2018-06-28T11:33:54.853Z,24.10
2018-06-28T11:36:23.174Z,23.71
2018-06-28T11:38:51.271Z,24.45
2018-06-28T11:41:19.616Z,24.46
2018-06-28T11:43:47.888Z,24.65
2018-06-28T11:46:16.339Z,24.96
2018-06-28T11:48:45.138Z,24.93
2018-06-28T11:51:14.243Z,23.96
2018-06-28T11:53:42.445Z,23.27
2018-06-28T11:56:10.704Z,23.27
2018-06-28T11:58:39.073Z,23.06
2018-06-28T12:01:07.581Z,22.90
2018-06-28T12:03:35.915Z,22.75
2018-06-28T12:06:04.659Z,22.64
2018-06-28T12:08:32.881Z,22.65
2018-06-28T12:11:01.180Z,22.67
2018-06-28T12:13:30.306Z,22.71
2018-06-28T12:15:59.504Z,22.72
2018-06-28T12:18:27.863Z,22.60
2018-06-28T12:20:56.158Z,22.31
2018-06-28T12:23:24.571Z,22.38
2018-06-28T12:25:53.107Z,22.12
2018-06-28T12:28:22.180Z,22.37
2018-06-28T12:30:50.515Z,22.47
2018-06-28T12:33:18.774Z,22.65
2018-06-28T12:35:51.897Z,22.45
2018-06-28T12:38:20.319Z,22.65
2018-06-28T12:40:48.770Z,22.52
2018-06-28T12:43:17.090Z,22.48
2018-06-28T12:45:46.017Z,22.37
2018-06-28T12:48:15.404Z,22.31
2018-06-28T12:50:44.584Z,23.09
2018-06-28T12:53:13.074Z,23.54
2018-06-28T12:56:20.495Z,23.61
2018-06-28T12:58:50.502Z,22.91
2018-06-28T13:01:18.995Z,23.36
2018-06-28T13:03:48.200Z,23.91
2018-06-28T13:06:17.258Z,23.51
2018-06-28T13:08:46.589Z,24.20
2018-06-28T13:11:15.302Z,25.34
2018-06-28T13:13:43.918Z,24.73
2018-06-28T13:16:14.323Z,25.10
2018-06-28T13:18:43.648Z,24.98
2018-06-28T13:21:13.327Z,24.89
2018-06-28T13:23:41.595Z,23.88
2018-06-28T13:26:12.992Z,23.49
2018-06-28T13:28:42.210Z,24.58
2018-06-28T13:31:11.196Z,24.66
2018-06-28T13:33:40.498Z,24.26
2018-06-28T13:36:08.847Z,23.48
2018-06-28T13:38:37.230Z,24.27
2018-06-28T13:41:06.077Z,24.20
2018-06-28T13:43:34.169Z,23.35
2018-06-28T13:46:02.708Z,23.38
2018-06-28T13:48:31.346Z,23.30
2018-06-28T13:51:06.946Z,23.41
2018-06-28T13:53:37.225Z,23.76
2018-06-28T13:56:05.606Z,23.92
2018-06-28T13:58:34.022Z,24.64
2018-06-28T14:01:02.797Z,24.93
2018-06-28T14:03:31.074Z,24.24
2018-06-28T14:06:00.337Z,24.47
2018-06-28T14:08:28.682Z,23.86
2018-06-28T14:10:57.353Z,23.83
2018-06-28T14:13:26.043Z,24.74
2018-06-28T14:15:54.908Z,24.69
2018-06-28T14:18:23.593Z,24.63
2018-06-28T14:20:52.972Z,24.42
2018-06-28T14:23:21.437Z,24.12
2018-06-28T14:25:55.328Z,23.74
2018-06-28T14:28:25.010Z,24.16
2018-06-28T14:30:53.395Z,24.07
2018-06-28T14:33:21.639Z,24.14
2018-06-28T14:35:50.542Z,24.21
2018-06-28T14:38:23.797Z,24.04
2018-06-28T14:40:52.423Z,24.76
2018-06-28T14:43:20.830Z,24.19
2018-06-28T14:45:49.401Z,24.05
2018-06-28T14:48:18.283Z,24.46
2018-06-28T14:50:46.645Z,24.00
2018-06-28T14:53:15.187Z,24.20
2018-06-28T14:55:43.891Z,24.31
2018-06-28T14:58:12.364Z,24.15
2018-06-28T15:00:41.443Z,24.04
2018-06-28T15:03:09.874Z,23.77
2018-06-28T15:05:38.210Z,24.03
2018-06-28T15:08:06.624Z,23.53
2018-06-28T15:10:35.418Z,23.55
2018-06-28T15:13:03.859Z,23.56
2018-06-28T15:15:32.599Z,23.37
2018-06-28T15:18:00.962Z,23.30
2018-06-28T15:20:30.124Z,23.15
2018-06-28T15:22:58.679Z,23.19
2018-06-28T15:25:27.036Z,23.29
2018-06-28T15:27:56.333Z,23.22
2018-06-28T15:30:24.810Z,23.24
2018-06-28T15:32:54.025Z,23.13
2018-06-28T15:35:22.841Z,23.19
2018-06-28T15:37:51.470Z,23.43
2018-06-28T15:40:19.878Z,23.51
2018-06-28T15:42:48.247Z,23.92
2018-06-28T15:45:16.588Z,23.87
2018-06-28T15:47:45.265Z,24.17
2018-06-28T15:50:13.749Z,24.24
2018-06-28T15:52:46.186Z,24.68
2018-06-28T15:55:15.383Z,24.63
2018-06-28T15:57:44.062Z,24.48
2018-06-28T16:00:12.762Z,24.57
2018-06-28T16:02:41.275Z,24.12
2018-06-28T16:05:09.778Z,23.85
2018-06-28T16:07:39.472Z,23.93
2018-06-28T16:10:08.856Z,23.65
2018-06-28T16:12:38.624Z,23.82
2018-06-28T16:15:06.962Z,23.73
2018-06-28T16:17:35.615Z,23.69
2018-06-28T16:20:04.329Z,23.53
2018-06-28T16:22:32.708Z,23.48
2018-06-28T16:25:01.215Z,23.63
2018-06-28T16:27:29.761Z,23.58
2018-06-28T16:29:58.170Z,23.46
2018-06-28T16:32:27.535Z,23.53
2018-06-28T16:34:56.150Z,23.68
2018-06-28T16:37:24.403Z,23.53
2018-06-28T16:39:52.691Z,23.54
2018-06-28T16:42:20.979Z,23.64
2018-06-28T16:44:50.343Z,23.63
2018-06-28T16:47:18.793Z,23.62
2018-06-28T16:49:47.269Z,23.57
2018-06-28T16:52:15.929Z,23.49
2018-06-28T16:54:44.292Z,23.35
2018-06-28T16:57:12.639Z,23.44
2018-06-28T16:59:41.029Z,23.43
2018-06-28T17:02:09.910Z,23.39
2018-06-28T17:04:38.263Z,23.37
2018-06-28T17:07:06.574Z,23.29
2018-06-28T17:09:34.973Z,23.29
2018-06-28T17:12:03.343Z,23.34
2018-06-28T17:14:32.068Z,23.04
2018-06-28T17:17:00.430Z,22.57
2018-06-28T17:19:28.832Z,22.26
2018-06-28T17:21:57.319Z,22.07
2018-06-28T17:24:25.611Z,22.07
2018-06-28T17:26:54.351Z,21.99
2018-06-28T17:29:24.131Z,21.83
2018-06-28T17:31:53.029Z,21.65
2018-06-28T17:34:21.510Z,21.56
2018-06-28T17:36:50.393Z,21.39
2018-06-28T17:39:18.837Z,21.36
2018-06-28T17:41:47.087Z,21.28
2018-06-28T17:44:15.577Z,21.14
2018-06-28T17:46:43.995Z,21.03
2018-06-28T17:49:12.416Z,20.99
2018-06-28T17:51:40.662Z,20.96
2018-06-28T17:54:09.031Z,20.88
2018-06-28T17:56:37.706Z,20.70
2018-06-28T17:59:10.335Z,20.20
2018-06-28T18:01:38.782Z,20.11
2018-06-28T18:04:07.302Z,20.03
2018-06-28T18:06:35.729Z,19.90
2018-06-28T18:09:07.366Z,19.86
2018-06-28T18:11:36.576Z,19.91
2018-06-28T18:14:05.306Z,19.80
2018-06-28T18:16:34.777Z,19.68
2018-06-28T18:19:03.420Z,19.68
2018-06-28T18:21:31.678Z,19.77
2018-06-28T18:24:00.550Z,19.50
2018-06-28T18:26:29.034Z,19.40
2018-06-28T18:28:57.581Z,19.41
2018-06-28T18:31:25.990Z,19.36
2018-06-28T18:33:54.519Z,19.33
2018-06-28T18:36:23.133Z,19.16
2018-06-28T18:38:51.577Z,19.10
2018-06-28T18:41:19.977Z,19.16
2018-06-28T18:43:48.415Z,19.18
2018-06-28T18:46:17.442Z,19.13
2018-06-28T18:48:45.776Z,19.24
2018-06-28T18:51:14.163Z,19.13
2018-06-28T18:53:42.803Z,19.09
2018-06-28T18:56:11.631Z,19.04
2018-06-28T18:58:40.071Z,18.95
2018-06-28T19:01:08.717Z,19.28
2018-06-28T19:03:37.990Z,19.20
2018-06-28T19:06:06.382Z,19.17
2018-06-28T19:08:35.033Z,19.16
2018-06-28T19:11:03.830Z,19.15
2018-06-28T19:13:34.253Z,19.37
2018-06-28T19:16:08.327Z,19.18
2018-06-28T19:18:36.991Z,18.99
2018-06-28T19:21:12.046Z,18.89
2018-06-28T19:23:46.344Z,18.86
2018-06-28T19:26:15.019Z,18.82
2018-06-28T19:28:44.399Z,19.00
2018-06-28T19:31:18.637Z,18.77
2018-06-28T19:33:47.224Z,18.84
2018-06-28T19:36:16.705Z,18.88
2018-06-28T19:38:51.176Z,18.38
2018-06-28T19:41:25.470Z,18.87
2018-06-28T19:43:53.943Z,18.85
2018-06-28T19:46:23.266Z,18.97
2018-06-28T19:48:52.034Z,18.60
2018-06-28T19:51:25.927Z,18.52
2018-06-28T19:53:54.596Z,18.60
2018-06-28T19:56:23.707Z,18.42
2018-06-28T19:58:52.742Z,18.50
2018-06-28T20:01:26.853Z,18.52
2018-06-28T20:04:01.317Z,18.55
2018-06-28T20:06:30.026Z,18.54
2018-06-28T20:08:58.759Z,18.84
2018-06-28T20:11:27.490Z,19.04
2018-06-28T20:14:01.710Z,18.88
2018-06-28T20:16:36.130Z,18.84
2018-06-28T20:19:10.275Z,18.79
2018-06-28T20:21:38.886Z,18.54
2018-06-28T20:24:07.311Z,18.45
2018-06-28T20:26:41.328Z,18.20
2018-06-28T20:29:15.358Z,18.25
2018-06-28T20:31:49.124Z,18.22
2018-06-28T20:34:17.425Z,18.26
2018-06-28T20:36:46.103Z,18.01
2018-06-28T20:39:14.297Z,18.01
2018-06-28T20:41:42.626Z,18.15
2018-06-28T20:44:10.932Z,17.98
2018-06-28T20:46:39.469Z,17.95
2018-06-28T20:49:07.947Z,17.95
2018-06-28T20:51:36.367Z,18.02
2018-06-28T20:54:04.728Z,17.83
2018-06-28T20:56:33.041Z,17.92
2018-06-28T20:59:01.433Z,17.73
2018-06-28T21:01:29.998Z,17.82
2018-06-28T21:03:58.247Z,17.73
2018-06-28T21:06:26.802Z,17.74
2018-06-28T21:08:55.211Z,17.61
2018-06-28T21:11:23.496Z,17.66
2018-06-28T21:13:52.469Z,17.62
2018-06-28T21:16:20.743Z,17.93
2018-06-28T21:18:49.038Z,17.94
2018-06-28T21:21:17.333Z,18.06
2018-06-28T21:23:46.208Z,18.04
2018-06-28T21:26:14.566Z,17.99
2018-06-28T21:28:42.778Z,18.09
2018-06-28T21:31:11.743Z,17.96
2018-06-28T21:33:40.268Z,17.97
2018-06-28T21:36:08.850Z,17.90
2018-06-28T21:41:30.590Z,17.45
2018-06-28T21:43:58.821Z,17.39
2018-06-28T21:47:04.878Z,17.20
2018-06-28T21:49:33.147Z,17.26
2018-06-28T21:52:01.435Z,17.29
2018-06-28T21:54:29.774Z,17.30
2018-06-28T21:56:58.024Z,17.13
2018-06-28T21:59:26.306Z,17.13
2018-06-28T22:01:55.133Z,17.27
2018-06-28T22:04:27.278Z,17.11
2018-06-28T22:06:57.625Z,17.11
2018-06-28T22:09:25.979Z,17.33
2018-06-28T22:11:54.260Z,17.35
2018-06-28T22:14:22.495Z,17.47
2018-06-28T22:16:50.676Z,17.44
2018-06-28T22:19:19.093Z,17.26
2018-06-28T22:21:47.390Z,17.22
2018-06-28T22:24:15.544Z,17.38
2018-06-28T22:26:43.939Z,17.22
2018-06-28T22:29:12.122Z,17.20
2018-06-28T22:31:40.286Z,17.16
2018-06-28T22:34:08.745Z,17.17
2018-06-28T22:36:37.167Z,17.15
2018-06-28T22:39:09.325Z,17.16
2018-06-28T22:41:37.702Z,17.05
2018-06-28T22:44:05.947Z,17.05
2018-06-28T22:46:34.557Z,17.05
2018-06-28T22:49:03.005Z,17.02
2018-06-28T22:51:31.230Z,17.00
2018-06-28T22:53:59.968Z,16.96
2018-06-28T22:56:28.265Z,16.86
2018-06-28T22:58:56.440Z,16.83
2018-06-28T23:01:24.676Z,16.80
2018-06-28T23:03:52.858Z,16.83
2018-06-28T23:06:21.014Z,16.86
2018-06-28T23:08:49.324Z,16.87
2018-06-28T23:11:17.525Z,16.85
2018-06-28T23:13:45.806Z,16.82
2018-06-28T23:16:13.961Z,16.81
2018-06-28T23:18:42.160Z,16.90
2018-06-28T23:21:10.313Z,16.82
2018-06-28T23:23:38.499Z,16.80
2018-06-28T23:26:06.675Z,16.48
2018-06-28T23:28:34.808Z,16.85
2018-06-28T23:31:03.288Z,16.81
2018-06-28T23:33:31.509Z,16.76
2018-06-28T23:35:59.690Z,16.74
2018-06-28T23:38:27.894Z,16.76
2018-06-28T23:40:56.120Z,16.75
2018-06-28T23:43:24.267Z,16.75
2018-06-28T23:45:52.464Z,16.77
2018-06-28T23:48:20.598Z,16.73
2018-06-28T23:50:48.979Z,16.76
2018-06-28T23:53:16.901Z,16.72
2018-06-28T23:55:45.159Z,16.71
2018-06-28T23:58:13.316Z,16.75
